createdAt,value
2019-03-13T00:02:03.937Z,2.02
2019-03-13T00:04:34.009Z,1.65
2019-03-13T00:07:04.445Z,1.57
2019-03-13T00:09:35.169Z,1.80
2019-03-13T00:12:05.234Z,1.45
2019-03-13T00:14:35.869Z,2.00
2019-03-13T00:17:05.922Z,1.75
2019-03-13T00:19:35.996Z,1.60
2019-03-13T00:22:07.062Z,1.35
2019-03-13T00:24:37.478Z,1.67
2019-03-13T00:27:07.775Z,1.70
2019-03-13T00:29:38.598Z,1.65
2019-03-13T00:32:11.922Z,1.50
2019-03-13T00:34:42.425Z,1.50
2019-03-13T00:37:12.890Z,1.40
2019-03-13T00:39:43.001Z,1.30
2019-03-13T00:44:44.366Z,1.27
2019-03-13T00:47:14.851Z,1.30
2019-03-13T00:49:45.490Z,1.07
2019-03-13T00:52:15.677Z,1.10
2019-03-13T00:54:46.144Z,1.15
2019-03-13T00:57:16.499Z,1.20
2019-03-13T00:59:46.619Z,1.10
2019-03-13T01:02:41.775Z,1.20
2019-03-13T01:05:28.844Z,1.32
2019-03-13T01:07:59.210Z,1.07
2019-03-13T01:10:29.669Z,1.00
2019-03-13T01:12:59.730Z,1.10
2019-03-13T01:15:29.952Z,1.05
2019-03-13T01:18:00.195Z,1.02
2019-03-13T01:20:30.532Z,1.12
2019-03-13T01:23:00.689Z,1.37
2019-03-13T01:25:31.121Z,1.15
2019-03-13T01:28:01.505Z,1.02
2019-03-13T01:30:39.716Z,1.10
2019-03-13T01:33:13.245Z,1.20
2019-03-13T01:35:47.130Z,1.15
2019-03-13T01:38:17.214Z,1.20
2019-03-13T01:40:47.431Z,1.42
2019-03-13T01:43:18.186Z,1.27
2019-03-13T01:45:48.224Z,1.10
2019-03-13T01:48:19.075Z,1.25
2019-03-13T01:50:49.208Z,0.97
2019-03-13T01:53:19.816Z,1.10
2019-03-13T01:55:50.841Z,0.90
2019-03-13T01:58:20.928Z,1.03
2019-03-13T02:00:50.995Z,1.07
2019-03-13T02:03:21.426Z,1.00
2019-03-13T02:05:51.836Z,1.10
2019-03-13T02:08:22.529Z,0.70
2019-03-13T02:10:54.334Z,0.80
2019-03-13T02:13:24.755Z,1.10
2019-03-13T02:15:54.906Z,0.95
2019-03-13T02:18:25.132Z,1.10
2019-03-13T02:20:55.198Z,0.95
2019-03-13T02:23:25.555Z,0.90
2019-03-13T02:25:55.735Z,0.98
2019-03-13T02:28:26.103Z,1.45
2019-03-13T02:30:56.214Z,1.00
2019-03-13T02:33:26.335Z,1.00
2019-03-13T02:35:57.312Z,1.30
2019-03-13T02:38:28.018Z,1.10
2019-03-13T02:40:58.246Z,1.40
2019-03-13T02:43:28.436Z,1.22
2019-03-13T02:45:58.635Z,0.98
2019-03-13T02:48:28.792Z,0.88
2019-03-13T02:50:59.862Z,1.25
2019-03-13T02:53:31.175Z,0.90
2019-03-13T02:56:01.562Z,1.20
2019-03-13T02:58:32.487Z,1.02
2019-03-13T03:01:39.530Z,1.00
2019-03-13T03:04:11.151Z,1.15
2019-03-13T03:06:41.850Z,1.05
2019-03-13T03:09:12.091Z,1.10
2019-03-13T03:11:44.027Z,1.00
2019-03-13T03:14:14.158Z,1.00
2019-03-13T03:16:44.757Z,1.00
2019-03-13T03:19:15.070Z,1.10
2019-03-13T03:21:45.489Z,1.32
2019-03-13T03:24:15.644Z,1.42
2019-03-13T03:26:45.717Z,0.70
2019-03-13T03:29:15.869Z,1.00
2019-03-13T03:31:46.416Z,0.75
2019-03-13T03:34:16.569Z,0.90
2019-03-13T03:36:46.653Z,0.60
2019-03-13T03:39:17.108Z,0.50
2019-03-13T03:41:47.276Z,0.40
2019-03-13T03:44:17.753Z,0.50
2019-03-13T03:46:48.192Z,0.30
2019-03-13T03:49:18.250Z,0.30
2019-03-13T03:51:48.735Z,0.23
2019-03-13T03:54:18.794Z,0.20
2019-03-13T03:56:49.664Z,0.30
2019-03-13T03:59:20.164Z,0.23
2019-03-13T04:01:50.295Z,0.30
2019-03-13T04:04:20.420Z,0.30
2019-03-13T04:06:50.522Z,0.20
2019-03-13T04:09:21.894Z,0.20
2019-03-13T04:11:52.612Z,0.20
2019-03-13T04:14:23.103Z,0.40
2019-03-13T04:16:53.244Z,0.30
2019-03-13T04:19:23.926Z,0.20
2019-03-13T04:21:53.983Z,0.30
2019-03-13T04:24:24.040Z,0.30
2019-03-13T04:26:54.108Z,0.20
2019-03-13T04:29:24.546Z,0.20
2019-03-13T04:31:55.073Z,0.10
2019-03-13T04:34:26.319Z,0.10
2019-03-13T04:36:56.607Z,0.20
2019-03-13T04:39:27.325Z,0.20
2019-03-13T04:41:57.737Z,0.20
2019-03-13T04:44:27.800Z,0.20
2019-03-13T04:46:58.137Z,0.33
2019-03-13T04:49:28.600Z,0.20
2019-03-13T04:51:58.889Z,0.20
2019-03-13T04:54:29.214Z,0.20
2019-03-13T04:56:59.697Z,0.20
2019-03-13T04:59:30.353Z,0.15
2019-03-13T05:02:01.015Z,0.20
2019-03-13T05:04:31.129Z,0.30
2019-03-13T05:07:01.371Z,0.20
2019-03-13T05:09:39.130Z,0.25
2019-03-13T05:12:09.320Z,0.30
2019-03-13T05:14:39.369Z,0.20
2019-03-13T05:17:09.890Z,0.20
2019-03-13T05:19:40.290Z,0.40
2019-03-13T05:22:10.613Z,0.30
2019-03-13T05:24:40.663Z,0.30
2019-03-13T05:27:11.162Z,0.47
2019-03-13T05:29:41.632Z,0.40
2019-03-13T05:32:12.418Z,0.30
2019-03-13T05:34:42.460Z,0.40
2019-03-13T05:37:12.918Z,0.30
2019-03-13T05:39:43.427Z,0.30
2019-03-13T05:42:13.837Z,0.40
2019-03-13T05:44:43.865Z,0.42
2019-03-13T05:47:14.363Z,0.55
2019-03-13T05:49:44.711Z,0.45
2019-03-13T05:52:14.855Z,0.30
2019-03-13T05:54:45.065Z,0.40
2019-03-13T05:57:15.629Z,0.50
2019-03-13T05:59:45.689Z,0.40
2019-03-13T06:02:15.792Z,0.37
2019-03-13T06:04:46.046Z,0.40
2019-03-13T06:07:16.518Z,0.40
2019-03-13T06:09:46.833Z,0.42
2019-03-13T06:12:16.946Z,0.30
2019-03-13T06:14:47.419Z,0.40
2019-03-13T06:17:17.825Z,0.50
2019-03-13T06:19:47.916Z,0.33
2019-03-13T06:22:18.001Z,0.42
2019-03-13T06:24:48.381Z,0.42
2019-03-13T06:27:18.438Z,0.42
2019-03-13T06:29:48.869Z,0.50
2019-03-13T06:32:18.942Z,0.50
2019-03-13T06:34:49.392Z,0.50
2019-03-13T06:37:20.227Z,0.50
2019-03-13T06:39:50.908Z,0.50
2019-03-13T06:42:21.130Z,0.70
2019-03-13T06:44:51.489Z,0.50
2019-03-13T06:47:24.866Z,0.72
2019-03-13T06:49:53.846Z,0.70
2019-03-13T06:52:24.263Z,0.70
2019-03-13T06:54:55.000Z,0.50
2019-03-13T06:57:25.720Z,1.00
2019-03-13T07:00:17.653Z,0.70
2019-03-13T07:02:55.909Z,0.90
2019-03-13T07:05:45.024Z,1.10
2019-03-13T07:08:25.210Z,0.70
2019-03-13T07:11:03.337Z,0.68
2019-03-13T07:13:47.319Z,0.68
2019-03-13T07:16:24.459Z,0.60
2019-03-13T07:19:20.485Z,0.53
2019-03-13T07:22:12.969Z,0.50
2019-03-13T07:25:01.662Z,0.70
2019-03-13T07:27:44.547Z,0.53
2019-03-13T07:30:23.478Z,0.50
2019-03-13T07:33:00.210Z,0.70
2019-03-13T07:35:37.656Z,0.75
2019-03-13T07:38:15.998Z,0.53
2019-03-13T07:41:06.414Z,0.47
2019-03-13T07:43:58.953Z,0.55
2019-03-13T07:46:44.608Z,0.60
2019-03-13T07:49:33.663Z,1.00
2019-03-13T07:52:27.251Z,0.65
2019-03-13T07:55:06.047Z,0.40
2019-03-13T07:57:54.362Z,0.65
2019-03-13T08:00:42.144Z,0.50
2019-03-13T08:03:46.596Z,0.60
2019-03-13T08:06:31.988Z,0.50
2019-03-13T08:09:19.823Z,0.57
2019-03-13T08:12:02.987Z,0.50
2019-03-13T08:14:43.554Z,0.60
2019-03-13T08:17:35.704Z,0.50
2019-03-13T08:23:05.066Z,0.47
2019-03-13T08:25:59.033Z,0.55
2019-03-13T08:28:46.531Z,0.50
2019-03-13T08:31:38.814Z,0.50
2019-03-13T08:34:26.334Z,0.40
2019-03-13T08:37:21.323Z,0.42
2019-03-13T08:40:13.961Z,0.37
2019-03-13T08:43:00.904Z,0.60
2019-03-13T08:45:38.913Z,0.47
2019-03-13T08:48:26.754Z,0.57
2019-03-13T08:51:28.166Z,0.57
2019-03-13T08:54:20.476Z,0.50
2019-03-13T08:57:10.209Z,0.50
2019-03-13T08:59:53.765Z,0.60
2019-03-13T09:02:41.469Z,0.60
2019-03-13T09:05:33.602Z,0.70
2019-03-13T09:08:21.355Z,0.70
2019-03-13T09:11:11.729Z,0.40
2019-03-13T09:13:52.228Z,0.50
2019-03-13T09:16:34.299Z,0.68
2019-03-13T09:19:11.554Z,0.82
2019-03-13T09:22:09.518Z,0.50
2019-03-13T09:25:12.185Z,0.45
2019-03-13T09:27:48.664Z,0.55
2019-03-13T09:30:46.725Z,0.65
2019-03-13T09:33:38.536Z,0.53
2019-03-13T09:36:28.012Z,0.60
2019-03-13T09:39:09.493Z,0.47
2019-03-13T09:41:59.495Z,0.40
2019-03-13T09:44:48.950Z,0.42
2019-03-13T09:47:29.447Z,0.55
2019-03-13T09:50:24.494Z,0.37
2019-03-13T09:53:04.290Z,0.68
2019-03-13T09:55:49.310Z,0.55
2019-03-13T09:58:45.096Z,0.85
2019-03-13T10:01:37.223Z,0.70
2019-03-13T10:04:29.062Z,0.50
2019-03-13T10:07:19.455Z,0.60
2019-03-13T10:09:58.597Z,0.57
2019-03-13T10:12:34.752Z,0.42
2019-03-13T10:15:30.252Z,0.30
2019-03-13T10:18:18.324Z,0.47
2019-03-13T10:21:15.010Z,0.60
2019-03-13T10:24:00.244Z,0.70
2019-03-13T10:27:04.490Z,0.30
2019-03-13T10:29:42.055Z,0.42
2019-03-13T10:32:29.863Z,0.47
2019-03-13T10:35:27.842Z,0.50
2019-03-13T10:38:22.965Z,0.40
2019-03-13T10:41:24.231Z,0.40
2019-03-13T10:44:31.567Z,0.50
2019-03-13T10:47:07.786Z,0.30
2019-03-13T10:49:45.628Z,0.40
2019-03-13T10:52:40.700Z,0.30
2019-03-13T10:55:38.926Z,0.50
2019-03-13T10:58:15.788Z,0.40
2019-03-13T11:00:52.182Z,0.40
2019-03-13T11:03:48.281Z,0.45
2019-03-13T11:06:54.298Z,0.30
2019-03-13T11:09:34.624Z,0.40
2019-03-13T11:12:24.407Z,0.40
2019-03-13T11:15:13.481Z,0.37
2019-03-13T11:18:14.509Z,0.35
2019-03-13T11:21:03.918Z,0.45
2019-03-13T11:23:55.643Z,0.50
2019-03-13T11:26:44.778Z,0.40
2019-03-13T11:29:32.646Z,0.75
2019-03-13T11:32:14.481Z,0.40
2019-03-13T11:34:58.031Z,0.40
2019-03-13T11:37:47.398Z,0.50
2019-03-13T11:40:26.217Z,0.78
2019-03-13T11:43:13.699Z,0.82
2019-03-13T11:46:21.475Z,0.50
2019-03-13T11:49:26.139Z,0.60
2019-03-13T11:52:31.236Z,0.80
2019-03-13T11:55:15.444Z,0.80
2019-03-13T11:58:03.304Z,0.42
2019-03-13T12:00:55.848Z,0.55
2019-03-13T12:03:44.842Z,0.65
2019-03-13T12:06:24.430Z,0.60
2019-03-13T12:09:16.660Z,0.40
2019-03-13T12:12:15.147Z,0.50
2019-03-13T12:15:07.053Z,0.50
2019-03-13T12:17:44.713Z,0.40
2019-03-13T12:20:32.135Z,0.60
2019-03-13T12:23:19.800Z,0.60
2019-03-13T12:25:59.583Z,0.50
2019-03-13T12:28:38.106Z,0.62
2019-03-13T12:31:42.030Z,0.70
2019-03-13T12:34:23.340Z,0.68
2019-03-13T12:37:03.131Z,0.60
2019-03-13T12:39:40.693Z,0.60
2019-03-13T12:42:25.875Z,0.85
2019-03-13T12:45:29.755Z,0.88
2019-03-13T12:48:21.133Z,0.70
2019-03-13T12:51:17.619Z,0.50
2019-03-13T12:54:11.932Z,0.57
2019-03-13T12:56:53.590Z,0.50
2019-03-13T12:59:30.479Z,0.50
2019-03-13T13:02:21.774Z,0.45
2019-03-13T13:05:22.098Z,0.50
2019-03-13T13:08:14.494Z,0.50
2019-03-13T13:11:01.351Z,0.70
2019-03-13T13:13:44.673Z,0.50
2019-03-13T13:16:33.725Z,0.60
2019-03-13T13:19:05.298Z,0.45
2019-03-13T13:21:35.645Z,0.40
2019-03-13T13:24:05.804Z,0.50
2019-03-13T13:26:36.100Z,0.70
2019-03-13T13:29:06.465Z,0.50
2019-03-13T13:31:36.568Z,0.50
2019-03-13T13:34:06.707Z,0.70
2019-03-13T13:36:37.141Z,0.62
2019-03-13T13:39:08.928Z,0.68
2019-03-13T13:41:40.941Z,0.80
2019-03-13T13:44:11.117Z,0.60
2019-03-13T13:46:53.419Z,0.65
2019-03-13T13:49:23.614Z,0.62
2019-03-13T13:51:54.056Z,0.70
2019-03-13T13:54:24.582Z,0.62
2019-03-13T13:56:56.016Z,0.50
2019-03-13T13:59:26.070Z,0.40
2019-03-13T14:01:56.635Z,0.50
2019-03-13T14:04:27.491Z,0.40
2019-03-13T14:06:58.024Z,0.60
2019-03-13T14:09:28.101Z,0.50
2019-03-13T14:12:00.060Z,0.57
2019-03-13T14:16:59.460Z,0.40
2019-03-13T14:19:30.463Z,0.60
2019-03-13T14:22:01.498Z,0.50
2019-03-13T14:24:31.659Z,0.40
2019-03-13T14:27:14.023Z,0.60
2019-03-13T14:29:34.550Z,0.50
2019-03-13T14:32:05.085Z,0.60
2019-03-13T14:34:35.875Z,0.80
2019-03-13T14:37:07.222Z,0.82
2019-03-13T14:39:37.295Z,0.72
2019-03-13T14:42:07.667Z,0.78
2019-03-13T14:44:37.707Z,0.93
2019-03-13T14:47:08.151Z,1.10
2019-03-13T14:49:38.292Z,0.90
2019-03-13T14:52:08.604Z,1.12
2019-03-13T14:54:38.970Z,0.90
2019-03-13T14:57:10.096Z,1.00
2019-03-13T14:59:40.509Z,1.10
2019-03-13T15:02:10.946Z,0.78
2019-03-13T15:04:41.494Z,0.70
2019-03-13T15:07:12.026Z,0.70
2019-03-13T15:09:43.705Z,0.93
2019-03-13T15:12:13.836Z,0.60
2019-03-13T15:14:44.207Z,0.62
2019-03-13T15:17:14.901Z,0.70
2019-03-13T15:19:45.046Z,0.88
2019-03-13T15:22:15.812Z,0.90
2019-03-13T15:24:46.379Z,0.80
2019-03-13T15:27:16.774Z,0.80
2019-03-13T15:29:47.710Z,0.80
2019-03-13T15:32:18.587Z,0.83
2019-03-13T15:34:48.973Z,0.90
2019-03-13T15:37:19.373Z,0.90
2019-03-13T15:39:49.847Z,0.88
2019-03-13T15:42:20.529Z,1.72
2019-03-13T15:44:51.168Z,1.05
2019-03-13T15:47:21.233Z,0.98
2019-03-13T15:49:51.391Z,1.00
2019-03-13T15:52:22.329Z,1.12
2019-03-13T15:54:52.675Z,0.70
2019-03-13T15:57:24.883Z,0.82
2019-03-13T15:59:55.556Z,1.12
2019-03-13T16:02:25.665Z,0.80
2019-03-13T16:04:56.115Z,1.07
2019-03-13T16:07:27.703Z,0.70
2019-03-13T16:09:58.060Z,0.90
2019-03-13T16:12:28.174Z,0.98
2019-03-13T16:14:58.246Z,1.00
2019-03-13T16:17:28.883Z,0.88
2019-03-13T16:19:59.052Z,1.07
2019-03-13T16:22:29.223Z,0.82
2019-03-13T16:24:59.540Z,0.70
2019-03-13T16:27:30.275Z,0.60
2019-03-13T16:30:00.471Z,0.90
2019-03-13T16:32:43.290Z,0.68
2019-03-13T16:35:03.163Z,0.88
2019-03-13T16:37:33.330Z,0.60
2019-03-13T16:40:03.775Z,0.70
2019-03-13T16:42:34.363Z,0.72
2019-03-13T16:45:04.853Z,0.60
2019-03-13T16:47:34.911Z,0.72
2019-03-13T16:50:06.036Z,0.68
2019-03-13T16:52:36.472Z,0.70
2019-03-13T16:55:08.111Z,1.12
2019-03-13T17:00:11.070Z,0.90
2019-03-13T17:02:42.369Z,0.80
2019-03-13T17:05:13.555Z,0.98
2019-03-13T17:07:43.967Z,0.78
2019-03-13T17:10:15.230Z,0.70
2019-03-13T17:12:45.619Z,0.80
2019-03-13T17:15:17.376Z,0.80
2019-03-13T17:20:21.757Z,0.70
2019-03-13T17:22:52.185Z,0.93
2019-03-13T17:25:22.385Z,1.00
2019-03-13T17:27:53.009Z,0.68
2019-03-13T17:30:24.993Z,0.80
2019-03-13T17:32:55.782Z,0.60
2019-03-13T17:35:25.909Z,0.70
2019-03-13T17:37:56.332Z,1.40
2019-03-13T17:40:27.103Z,0.85
2019-03-13T17:42:57.339Z,0.80
2019-03-13T17:45:27.514Z,0.70
2019-03-13T17:47:58.098Z,0.90
2019-03-13T17:50:28.579Z,0.68
2019-03-13T17:52:59.302Z,0.95
2019-03-13T17:55:30.078Z,1.00
2019-03-13T17:58:00.543Z,0.97
2019-03-13T18:00:37.445Z,0.88
2019-03-13T18:03:07.960Z,0.90
2019-03-13T18:05:38.361Z,0.70
2019-03-13T18:08:08.863Z,1.00
2019-03-13T18:10:39.323Z,1.10
2019-03-13T18:13:09.728Z,1.30
2019-03-13T18:15:40.134Z,1.60
2019-03-13T18:18:10.257Z,1.37
2019-03-13T18:20:41.447Z,1.17
2019-03-13T18:23:12.283Z,1.10
2019-03-13T18:25:42.402Z,1.00
2019-03-13T18:28:12.474Z,1.00
2019-03-13T18:30:43.430Z,1.00
2019-03-13T18:33:14.265Z,1.17
2019-03-13T18:35:44.713Z,0.90
2019-03-13T18:38:15.147Z,0.78
2019-03-13T18:40:45.520Z,0.82
2019-03-13T18:43:16.108Z,0.90
2019-03-13T18:45:46.534Z,0.60
2019-03-13T18:48:16.698Z,0.98
2019-03-13T18:50:47.391Z,1.00
2019-03-13T18:53:18.378Z,0.60
2019-03-13T18:55:49.054Z,0.80
2019-03-13T18:58:19.455Z,0.90
2019-03-13T19:00:49.647Z,0.98
2019-03-13T19:03:20.095Z,0.98
2019-03-13T19:05:50.889Z,0.90
2019-03-13T19:08:21.536Z,1.00
2019-03-13T19:10:52.318Z,0.98
2019-03-13T19:13:22.992Z,1.37
2019-03-13T19:15:54.062Z,1.35
2019-03-13T19:18:24.127Z,1.12
2019-03-13T19:20:58.436Z,1.30
2019-03-13T19:23:28.145Z,1.17
2019-03-13T19:25:58.504Z,1.00
2019-03-13T19:28:29.846Z,1.12
2019-03-13T19:31:00.261Z,0.93
2019-03-13T19:33:30.480Z,1.00
2019-03-13T19:36:00.930Z,0.93
2019-03-13T19:38:31.588Z,1.07
2019-03-13T19:41:01.958Z,0.90
2019-03-13T19:43:32.344Z,1.22
2019-03-13T19:46:02.470Z,0.88
2019-03-13T19:48:32.926Z,0.90
2019-03-13T19:51:03.701Z,1.00
2019-03-13T19:53:41.879Z,0.83
2019-03-13T19:56:11.999Z,1.00
2019-03-13T19:58:42.715Z,0.70
2019-03-13T20:01:13.588Z,0.93
2019-03-13T20:03:54.660Z,0.77
2019-03-13T20:08:45.923Z,0.75
2019-03-13T20:11:16.053Z,0.75
2019-03-13T20:13:46.194Z,1.00
2019-03-13T20:16:17.131Z,0.80
2019-03-13T20:18:49.834Z,0.70
2019-03-13T20:21:20.151Z,1.17
2019-03-13T20:23:50.360Z,1.22
2019-03-13T20:26:20.664Z,1.20
2019-03-13T20:28:52.155Z,1.57
2019-03-13T20:31:23.487Z,0.80
2019-03-13T20:33:54.368Z,0.90
2019-03-13T20:36:24.774Z,0.90
2019-03-13T20:38:55.685Z,0.70
2019-03-13T20:41:26.041Z,0.90
2019-03-13T20:43:56.804Z,0.93
2019-03-13T20:46:28.181Z,1.05
2019-03-13T20:48:58.426Z,1.10
2019-03-13T20:51:28.890Z,11.70
2019-03-13T20:53:59.026Z,55.03
2019-03-13T20:56:29.296Z,60.15
2019-03-13T20:59:32.639Z,41.50
2019-03-13T21:02:17.708Z,39.20
2019-03-13T21:05:04.615Z,30.00
2019-03-13T21:07:36.323Z,12.95
2019-03-13T21:10:07.591Z,6.95
2019-03-13T21:12:38.650Z,5.62
2019-03-13T21:15:09.061Z,3.07
2019-03-13T21:17:39.246Z,2.95
2019-03-13T21:20:10.828Z,1.75
2019-03-13T21:22:41.529Z,1.47
2019-03-13T21:25:12.335Z,1.32
2019-03-13T21:27:42.922Z,1.25
2019-03-13T21:30:22.227Z,1.20
2019-03-13T21:32:52.956Z,1.40
2019-03-13T21:35:23.304Z,1.00
2019-03-13T21:37:54.019Z,1.00
2019-03-13T21:40:24.777Z,1.00
2019-03-13T21:42:55.961Z,1.00
2019-03-13T21:45:40.019Z,1.07
2019-03-13T21:47:58.556Z,1.10
2019-03-13T21:50:29.113Z,0.93
2019-03-13T21:53:05.572Z,1.07
2019-03-13T21:55:37.506Z,1.17
2019-03-13T21:58:08.448Z,1.02
2019-03-13T22:00:38.881Z,1.10
2019-03-13T22:03:09.155Z,0.90
2019-03-13T22:05:39.350Z,1.00
2019-03-13T22:08:09.820Z,0.70
2019-03-13T22:10:40.154Z,0.72
2019-03-13T22:13:10.969Z,0.95
2019-03-13T22:15:41.229Z,1.97
2019-03-13T22:18:12.026Z,120.90
2019-03-13T22:20:42.915Z,123.78
2019-03-13T22:23:13.632Z,180.97
2019-03-13T22:25:44.148Z,49.27
2019-03-13T22:28:14.790Z,68.42
2019-03-13T22:30:45.389Z,20.17
2019-03-13T22:33:15.929Z,8.85
2019-03-13T22:35:47.482Z,7.10
2019-03-13T22:38:18.277Z,5.40
2019-03-13T22:40:49.018Z,3.20
2019-03-13T22:43:20.238Z,2.67
2019-03-13T22:45:50.655Z,3.65
2019-03-13T22:48:21.365Z,1.70
2019-03-13T22:50:52.305Z,1.27
2019-03-13T22:53:22.498Z,1.20
2019-03-13T22:55:52.963Z,1.00
2019-03-13T22:58:24.739Z,0.90
2019-03-13T23:01:06.525Z,0.95
2019-03-13T23:03:40.478Z,0.70
2019-03-13T23:06:10.673Z,1.00
2019-03-13T23:08:41.614Z,1.00
2019-03-13T23:13:42.269Z,0.80
2019-03-13T23:16:12.907Z,0.60
2019-03-13T23:18:43.132Z,0.75
2019-03-13T23:21:15.106Z,0.60
2019-03-13T23:23:45.311Z,0.70
2019-03-13T23:26:16.428Z,0.60
2019-03-13T23:28:46.827Z,0.60
2019-03-13T23:31:17.634Z,1.00
2019-03-13T23:33:47.660Z,0.80
2019-03-13T23:36:18.218Z,0.60
2019-03-13T23:38:48.662Z,0.88
2019-03-13T23:41:18.851Z,0.70
2019-03-13T23:43:49.030Z,0.65
2019-03-13T23:46:19.110Z,0.78
2019-03-13T23:48:49.235Z,0.70
2019-03-13T23:51:19.419Z,0.90
2019-03-13T23:53:50.277Z,0.80
2019-03-13T23:56:20.492Z,0.77
2019-03-13T23:58:50.927Z,0.70
